Time;durP1;ratioP1;P1;durP2;ratioP2;P2;SDS_P1;SDS_P2;PMS_P1;PMS_P2;Temp;Humidity;BMP_temperature;BMP_pressure;BME280_temperature;BME280_humidity;BME280_pressure;Samples;Min_cycle;Max_cycle;Signal;HPM_P1;HPM_P2
2023/03/17 00:01:53;;;;;;;4.47;2.45;;;5.30;99.90;;;;;;5036038;28;25072;-72
2023/03/17 00:04:23;;;;;;;5.15;2.25;;;5.30;99.90;;;;;;5036253;28;25133;-72
2023/03/17 00:06:50;;;;;;;3.42;1.90;;;5.30;99.90;;;;;;5036619;28;25107;-72
2023/03/17 00:09:18;;;;;;;7.40;1.95;;;5.30;99.90;;;;;;5036046;28;25061;-72
2023/03/17 00:11:46;;;;;;;6.53;2.00;;;5.30;99.90;;;;;;5036299;28;25112;-72
2023/03/17 00:14:15;;;;;;;6.10;2.10;;;5.20;99.90;;;;;;5036044;28;25096;-72
2023/03/17 00:16:48;;;;;;;5.30;1.98;;;5.30;99.90;;;;;;5035984;28;25109;-72
2023/03/17 00:19:18;;;;;;;4.50;2.05;;;5.30;99.90;;;;;;5035931;28;25079;-72
2023/03/17 00:21:46;;;;;;;5.72;2.25;;;5.20;99.90;;;;;;5035930;28;25060;-72
2023/03/17 00:24:14;;;;;;;6.03;2.08;;;5.30;99.90;;;;;;5036073;28;25070;-72
2023/03/17 00:26:42;;;;;;;3.67;1.92;;;5.20;99.90;;;;;;5035859;28;25071;-72
2023/03/17 00:29:09;;;;;;;4.15;2.42;;;5.30;99.90;;;;;;5034802;28;25097;-72
2023/03/17 00:31:38;;;;;;;6.30;2.45;;;5.30;99.90;;;;;;5035852;28;25148;-72
2023/03/17 00:34:06;;;;;;;4.95;2.45;;;5.20;99.90;;;;;;5035945;28;25150;-72
2023/03/17 00:36:34;;;;;;;5.97;2.30;;;5.30;99.90;;;;;;5037460;28;25123;-72
2023/03/17 00:39:02;;;;;;;3.50;1.95;;;5.20;99.90;;;;;;5039583;28;25066;-72
2023/03/17 00:41:30;;;;;;;4.20;1.88;;;5.20;99.90;;;;;;5039754;28;25117;-72
2023/03/17 00:43:57;;;;;;;5.93;2.25;;;5.20;99.90;;;;;;5039573;28;25082;-72
2023/03/17 00:46:34;;;;;;;3.75;2.00;;;5.20;99.90;;;;;;5039401;28;25048;-72
2023/03/17 00:49:20;;;;;;;4.68;2.10;;;5.20;99.90;;;;;;5039091;28;25070;-72
2023/03/17 00:51:48;;;;;;;15.65;3.40;;;5.20;99.90;;;;;;5039869;28;25078;-72
2023/03/17 00:54:16;;;;;;;3.70;2.20;;;5.20;99.90;;;;;;5021764;28;25071;-72
2023/03/17 00:56:44;;;;;;;5.70;2.42;;;5.30;99.90;;;;;;5039498;28;25135;-72
2023/03/17 00:59:52;;;;;;;6.88;2.40;;;5.40;99.90;;;;;;5021576;28;25073;-72
2023/03/17 01:02:19;;;;;;;3.45;1.92;;;5.40;99.90;;;;;;5037737;28;25101;-72
2023/03/17 01:04:46;;;;;;;5.38;2.47;;;5.40;99.90;;;;;;5039360;28;25135;-72
2023/03/17 01:07:14;;;;;;;5.32;2.08;;;5.40;99.90;;;;;;5039033;28;25074;-72
2023/03/17 01:09:42;;;;;;;9.90;2.47;;;5.50;99.90;;;;;;5022215;28;25082;-72
2023/03/17 01:12:13;;;;;;;4.03;2.13;;;5.40;99.90;;;;;;5039114;28;25077;-72
2023/03/17 01:14:40;;;;;;;4.72;2.50;;;5.40;99.90;;;;;;5039094;28;25098;-72
2023/03/17 01:17:17;;;;;;;4.90;2.78;;;5.50;99.90;;;;;;5037823;28;25150;-72
2023/03/17 01:19:45;;;;;;;5.05;2.47;;;5.40;99.90;;;;;;5038707;28;25065;-72
2023/03/17 01:22:13;;;;;;;3.83;2.05;;;5.50;99.90;;;;;;5038791;28;25073;-72
2023/03/17 01:24:41;;;;;;;5.28;2.55;;;5.50;99.90;;;;;;5038752;28;25065;-72
2023/03/17 01:27:09;;;;;;;5.63;2.47;;;5.60;99.90;;;;;;5038907;28;25096;-72
2023/03/17 01:29:36;;;;;;;5.93;2.65;;;5.50;99.90;;;;;;5038564;28;25126;-72
2023/03/17 01:32:04;;;;;;;5.97;2.10;;;5.50;99.90;;;;;;5039231;28;25074;-72
2023/03/17 01:34:32;;;;;;;6.05;2.70;;;5.60;99.90;;;;;;5038417;28;25083;-72
2023/03/17 01:37:00;;;;;;;4.68;2.35;;;5.60;99.90;;;;;;5038395;28;25078;-72
2023/03/17 01:39:27;;;;;;;4.40;2.45;;;5.60;99.90;;;;;;5038954;28;25058;-72
2023/03/17 01:42:00;;;;;;;5.07;2.80;;;5.60;99.90;;;;;;5038371;28;25077;-72
2023/03/17 01:44:28;;;;;;;5.50;2.20;;;5.50;99.90;;;;;;5038245;28;25104;-72
2023/03/17 01:46:55;;;;;;;5.30;2.47;;;5.50;99.90;;;;;;5038486;28;25075;-72
2023/03/17 01:49:31;;;;;;;5.93;2.42;;;5.50;99.90;;;;;;5038406;28;25158;-72
2023/03/17 01:52:02;;;;;;;;;;;5.60;99.90;;;;;;5038427;28;25074;-72
2023/03/17 01:55:03;;;;;;;5.70;3.05;;;5.60;99.90;;;;;;5038432;28;24060;-72
2023/03/17 01:57:35;;;;;;;6.57;2.65;;;5.60;99.90;;;;;;5036092;28;25084;-72
2023/03/17 02:00:16;;;;;;;6.20;2.63;;;5.70;99.90;;;;;;5038309;28;25068;-72
2023/03/17 02:02:50;;;;;;;5.75;2.58;;;5.70;99.90;;;;;;5038076;28;25137;-72
2023/03/17 02:05:23;;;;;;;6.50;2.70;;;5.70;99.90;;;;;;5037884;28;25068;-72
2023/03/17 02:07:52;;;;;;;6.68;2.72;;;5.80;99.90;;;;;;5037933;28;25129;-72
2023/03/17 02:10:22;;;;;;;6.97;2.17;;;5.80;99.90;;;;;;5037766;28;25054;-72
2023/03/17 02:12:55;;;;;;;6.65;2.33;;;5.70;99.90;;;;;;5037836;28;25128;-72
2023/03/17 02:15:23;;;;;;;5.35;2.78;;;5.70;99.90;;;;;;5037633;28;25073;-72
2023/03/17 02:17:50;;;;;;;5.03;2.72;;;5.70;99.90;;;;;;5037857;28;25086;-72
2023/03/17 02:20:17;;;;;;;5.07;2.45;;;5.60;99.90;;;;;;5037931;28;25056;-72
2023/03/17 02:22:52;;;;;;;10.23;3.42;;;5.60;99.90;;;;;;5037554;28;25072;-72
2023/03/17 02:25:22;;;;;;;5.95;2.58;;;5.60;99.90;;;;;;5037546;28;25079;-72
2023/03/17 02:27:55;;;;;;;4.82;2.60;;;5.60;99.90;;;;;;5038219;28;25080;-72
2023/03/17 02:30:23;;;;;;;5.85;2.67;;;5.60;99.90;;;;;;5037381;28;25122;-72
2023/03/17 02:32:51;;;;;;;7.28;2.70;;;5.60;99.90;;;;;;5037745;28;25145;-72
2023/03/17 02:35:19;;;;;;;5.25;2.75;;;5.50;99.90;;;;;;5037180;28;25076;-72
2023/03/17 02:37:47;;;;;;;5.10;2.70;;;5.60;99.90;;;;;;5037516;28;25077;-72
2023/03/17 02:40:15;;;;;;;5.13;2.58;;;5.60;99.90;;;;;;5037236;28;25058;-72
2023/03/17 02:42:43;;;;;;;6.05;2.63;;;5.70;99.90;;;;;;5037172;28;25072;-72
2023/03/17 02:45:11;;;;;;;3.72;2.22;;;5.70;99.90;;;;;;5037099;28;25062;-72
2023/03/17 02:47:40;;;;;;;6.00;2.65;;;5.70;99.90;;;;;;5037795;28;25066;-72
2023/03/17 02:50:16;;;;;;;5.55;2.58;;;5.70;99.90;;;;;;5037090;28;25129;-72
2023/03/17 02:52:44;;;;;;;6.80;2.85;;;5.70;99.90;;;;;;5037596;28;25134;-72
2023/03/17 02:55:11;;;;;;;5.75;2.63;;;5.70;99.90;;;;;;5019394;28;25058;-72
2023/03/17 02:57:38;;;;;;;9.30;3.00;;;5.70;99.90;;;;;;5037407;28;25127;-72
2023/03/17 03:00:09;;;;;;;6.30;3.67;;;5.70;99.90;;;;;;5036470;28;25141;-72
2023/03/17 03:02:38;;;;;;;4.78;2.55;;;5.80;99.90;;;;;;5036754;28;25143;-72
2023/03/17 03:05:07;;;;;;;4.40;2.40;;;5.80;99.90;;;;;;5037071;28;25100;-72
2023/03/17 03:07:35;;;;;;;6.13;2.88;;;5.80;99.90;;;;;;5019291;28;25051;-72
2023/03/17 03:10:03;;;;;;;5.53;2.63;;;5.80;99.90;;;;;;5036700;28;25110;-72
2023/03/17 03:12:30;;;;;;;5.57;2.95;;;5.80;99.90;;;;;;5037032;28;25118;-72
2023/03/17 03:14:57;;;;;;;7.13;3.03;;;5.70;99.90;;;;;;5036613;28;25108;-72
2023/03/17 03:17:24;;;;;;;6.22;3.20;;;5.70;99.90;;;;;;5036595;28;25079;-72
2023/03/17 03:19:52;;;;;;;4.97;2.38;;;5.60;99.90;;;;;;5019293;28;25071;-72
2023/03/17 03:22:19;;;;;;;4.68;2.70;;;5.60;99.90;;;;;;5037469;28;25074;-72
2023/03/17 03:24:46;;;;;;;6.38;2.63;;;5.50;99.90;;;;;;5018954;28;25070;-72
2023/03/17 03:27:14;;;;;;;6.15;2.95;;;5.40;99.90;;;;;;5036553;28;25060;-72
2023/03/17 03:29:41;;;;;;;5.75;2.95;;;5.30;99.90;;;;;;5036479;28;25087;-72
2023/03/17 03:32:08;;;;;;;6.43;2.97;;;5.30;99.90;;;;;;5037141;28;25124;-72
2023/03/17 03:34:35;;;;;;;4.97;2.70;;;5.20;99.90;;;;;;5036609;28;25059;-72
2023/03/17 03:37:03;;;;;;;5.97;2.90;;;5.20;99.90;;;;;;5036971;28;25117;-72
2023/03/17 03:39:30;;;;;;;5.40;2.60;;;5.20;99.90;;;;;;5036877;28;25057;-72
2023/03/17 03:41:58;;;;;;;7.78;3.15;;;5.10;99.90;;;;;;5019404;28;25062;-72
2023/03/17 03:44:25;;;;;;;5.32;3.15;;;5.00;99.90;;;;;;5036519;28;25076;-72
2023/03/17 03:46:53;;;;;;;7.22;3.33;;;5.00;99.90;;;;;;5036204;28;25065;-72
2023/03/17 03:49:21;;;;;;;6.28;2.75;;;4.90;99.90;;;;;;5036161;28;25081;-72
2023/03/17 03:51:48;;;;;;;5.32;2.78;;;4.80;99.90;;;;;;5036967;28;25074;-72
2023/03/17 03:54:16;;;;;;;6.05;2.92;;;4.80;99.90;;;;;;5036095;28;25068;-72
2023/03/17 03:56:43;;;;;;;7.35;2.78;;;4.70;99.90;;;;;;5036397;28;25060;-72
2023/03/17 03:59:10;;;;;;;7.75;3.17;;;4.70;99.90;;;;;;5036149;28;25081;-72
2023/03/17 04:01:38;;;;;;;5.35;2.90;;;4.70;99.90;;;;;;5036294;28;25124;-72
2023/03/17 04:04:06;;;;;;;7.10;2.72;;;4.80;99.90;;;;;;5036122;28;25061;-72
2023/03/17 04:06:33;;;;;;;7.43;3.00;;;4.80;99.90;;;;;;5036680;28;25077;-72
2023/03/17 04:09:01;;;;;;;5.93;2.45;;;4.80;99.90;;;;;;5036617;28;25140;-72
2023/03/17 04:11:28;;;;;;;5.75;2.42;;;4.80;99.90;;;;;;5021482;28;25062;-72
2023/03/17 04:13:55;;;;;;;7.05;2.85;;;4.90;99.90;;;;;;5040186;28;25058;-72
2023/03/17 04:16:23;;;;;;;5.47;3.10;;;4.90;99.90;;;;;;5022496;28;25070;-72
2023/03/17 04:18:50;;;;;;;5.43;2.55;;;5.00;99.90;;;;;;5039977;28;25048;-72
2023/03/17 04:21:17;;;;;;;8.13;2.75;;;5.00;99.90;;;;;;5039905;28;25079;-72
2023/03/17 04:23:46;;;;;;;5.03;2.40;;;5.00;99.90;;;;;;5039769;28;25068;-72
2023/03/17 04:26:13;;;;;;;4.63;2.38;;;5.10;99.90;;;;;;5039789;28;25058;-72
2023/03/17 04:28:40;;;;;;;5.38;2.08;;;5.10;99.90;;;;;;5022217;28;25146;-72
2023/03/17 04:31:11;;;;;;;6.07;2.97;;;5.10;99.90;;;;;;5039720;28;25063;-72
2023/03/17 04:33:39;;;;;;;4.90;2.50;;;5.10;99.90;;;;;;5039706;28;25156;-72
2023/03/17 04:36:07;;;;;;;6.10;2.75;;;5.10;99.90;;;;;;5022138;28;25097;-72
2023/03/17 04:38:35;;;;;;;5.50;2.80;;;5.10;99.90;;;;;;5039753;28;25054;-72
2023/03/17 04:41:02;;;;;;;7.57;3.17;;;5.10;99.90;;;;;;5039465;28;25056;-72
2023/03/17 04:43:30;;;;;;;8.00;2.53;;;5.10;99.90;;;;;;5040095;28;25071;-72
2023/03/17 04:45:57;;;;;;;6.82;3.25;;;5.00;99.90;;;;;;5040001;28;25120;-72
2023/03/17 04:48:24;;;;;;;8.07;3.97;;;5.00;99.90;;;;;;5039848;28;25136;-72
2023/03/17 04:50:52;;;;;;;18.30;6.22;;;4.90;99.90;;;;;;5039384;28;25043;-72
2023/03/17 04:53:19;;;;;;;14.23;5.63;;;4.80;99.90;;;;;;5039375;28;25062;-72
2023/03/17 04:55:49;;;;;;;5.88;3.03;;;4.80;99.90;;;;;;5022008;28;25064;-72
2023/03/17 04:58:16;;;;;;;8.35;2.80;;;4.80;99.90;;;;;;5021833;28;25106;-72
2023/03/17 05:00:43;;;;;;;8.02;3.92;;;4.70;99.90;;;;;;5039177;28;25154;-72
2023/03/17 05:03:12;;;;;;;12.35;4.47;;;4.70;99.90;;;;;;5039502;28;25119;-72
2023/03/17 05:05:39;;;;;;;6.30;3.25;;;4.60;99.90;;;;;;5039688;28;25049;-72
2023/03/17 05:08:06;;;;;;;6.65;3.85;;;4.60;99.90;;;;;;5039480;28;25063;-72
2023/03/17 05:10:33;;;;;;;10.43;3.75;;;4.60;99.90;;;;;;5039571;28;25071;-72
2023/03/17 05:13:01;;;;;;;7.22;3.53;;;4.60;99.90;;;;;;5039532;28;25060;-72
2023/03/17 05:15:29;;;;;;;10.57;4.10;;;4.60;99.90;;;;;;5039382;28;25068;-72
2023/03/17 05:17:57;;;;;;;12.25;5.22;;;4.60;99.90;;;;;;5039065;28;25070;-72
2023/03/17 05:20:24;;;;;;;20.10;5.80;;;4.60;99.90;;;;;;5038747;28;25067;-72
2023/03/17 05:22:52;;;;;;;9.02;3.47;;;4.60;99.90;;;;;;5038043;28;25077;-72
2023/03/17 05:25:19;;;;;;;10.63;3.80;;;4.60;99.90;;;;;;5038730;28;25105;-72
2023/03/17 05:27:46;;;;;;;5.43;2.80;;;4.50;99.90;;;;;;5038909;28;25061;-72
2023/03/17 05:30:14;;;;;;;7.28;2.92;;;4.50;99.90;;;;;;5038624;28;25131;-72
2023/03/17 05:32:41;;;;;;;10.25;3.20;;;4.40;99.90;;;;;;5038685;28;25064;-72
2023/03/17 05:35:09;;;;;;;6.05;2.85;;;4.40;99.90;;;;;;5038387;28;25053;-72
2023/03/17 05:37:36;;;;;;;8.85;3.35;;;4.40;99.90;;;;;;5020948;28;25072;-72
2023/03/17 05:40:04;;;;;;;10.85;3.75;;;4.40;99.90;;;;;;5038460;28;25135;-72
2023/03/17 05:42:31;;;;;;;11.25;4.70;;;4.50;99.90;;;;;;5020759;28;25079;-72
2023/03/17 05:44:58;;;;;;;14.70;5.82;;;4.40;99.90;;;;;;5038936;28;25152;-72
2023/03/17 05:47:26;;;;;;;10.45;4.88;;;4.40;99.90;;;;;;5038879;28;25064;-72
2023/03/17 05:49:53;;;;;;;49.75;20.02;;;4.30;99.90;;;;;;5038180;28;25117;-72
2023/03/17 05:52:20;;;;;;;34.03;13.75;;;4.30;99.90;;;;;;5038539;28;25075;-72
2023/03/17 05:54:48;;;;;;;5.82;3.28;;;4.30;99.90;;;;;;5038125;28;25105;-72
2023/03/17 05:57:15;;;;;;;10.45;4.55;;;4.30;99.90;;;;;;5021037;28;25070;-72
2023/03/17 05:59:44;;;;;;;10.13;4.78;;;4.40;99.90;;;;;;5037988;28;25056;-72
2023/03/17 06:02:12;;;;;;;14.20;6.35;;;4.40;99.90;;;;;;5038096;28;25131;-72
2023/03/17 06:04:39;;;;;;;14.52;5.65;;;4.40;99.90;;;;;;5020472;28;25120;-72
2023/03/17 06:07:08;;;;;;;9.13;4.53;;;4.40;99.90;;;;;;5020833;28;25059;-72
2023/03/17 06:09:35;;;;;;;7.63;3.42;;;4.40;99.90;;;;;;5037810;28;25094;-72
2023/03/17 06:12:03;;;;;;;11.32;5.10;;;4.50;99.90;;;;;;5038807;28;25115;-72
2023/03/17 06:14:31;;;;;;;6.60;2.80;;;4.60;99.90;;;;;;5037960;28;25076;-72
2023/03/17 06:16:58;;;;;;;7.45;3.20;;;4.60;99.90;;;;;;5037760;28;25057;-73
2023/03/17 06:19:25;;;;;;;7.40;3.22;;;4.70;99.90;;;;;;5038200;28;25075;-73
2023/03/17 06:21:52;;;;;;;5.10;2.67;;;4.80;99.90;;;;;;5020215;28;25091;-73
2023/03/17 06:24:20;;;;;;;7.25;3.20;;;4.80;99.90;;;;;;5020352;28;25113;-73
2023/03/17 06:26:47;;;;;;;9.13;4.00;;;4.90;99.90;;;;;;5037586;28;25149;-72
2023/03/17 06:29:15;;;;;;;5.57;2.88;;;4.90;99.90;;;;;;5037784;28;25122;-73
2023/03/17 06:31:49;;;;;;;8.57;2.90;;;5.00;99.90;;;;;;5037579;28;25051;-73
2023/03/17 06:34:21;;;;;;;5.75;3.13;;;5.00;99.90;;;;;;5036296;28;25087;-73
2023/03/17 06:36:49;;;;;;;5.63;2.47;;;5.10;99.90;;;;;;5019777;28;25099;-73
2023/03/17 06:39:17;;;;;;;6.40;2.72;;;5.20;99.90;;;;;;5037857;28;25082;-72
2023/03/17 06:41:44;;;;;;;5.75;2.80;;;5.20;99.90;;;;;;5037451;28;25092;-72
2023/03/17 06:44:13;;;;;;;5.15;3.05;;;5.30;99.90;;;;;;5037753;28;25078;-73
2023/03/17 06:46:40;;;;;;;4.93;2.50;;;5.40;99.90;;;;;;5037091;28;25053;-72
2023/03/17 06:49:08;;;;;;;5.10;2.50;;;5.50;99.90;;;;;;5037079;28;25070;-72
2023/03/17 06:51:36;;;;;;;7.00;2.75;;;5.70;99.90;;;;;;5037008;28;25064;-72
2023/03/17 06:54:03;;;;;;;8.30;3.50;;;5.80;99.90;;;;;;5036931;28;25081;-74
2023/03/17 06:56:30;;;;;;;5.05;2.80;;;5.90;99.90;;;;;;5036957;28;25072;-73
2023/03/17 06:58:58;;;;;;;6.15;2.13;;;5.90;99.90;;;;;;5037007;28;25062;-72
2023/03/17 07:01:26;;;;;;;6.70;2.58;;;6.00;99.90;;;;;;5036967;28;25065;-72
2023/03/17 07:03:54;;;;;;;9.10;2.92;;;6.10;99.90;;;;;;5020829;28;25063;-73
2023/03/17 07:06:25;;;;;;;5.55;3.00;;;6.10;99.90;;;;;;5037443;28;25065;-71
2023/03/17 07:08:53;;;;;;;4.13;2.38;;;6.20;99.90;;;;;;5036885;28;25111;-72
2023/03/17 07:11:22;;;;;;;5.97;2.70;;;6.20;99.90;;;;;;5019313;28;25064;-72
2023/03/17 07:13:50;;;;;;;4.75;2.55;;;6.30;99.90;;;;;;5036660;28;25066;-72
2023/03/17 07:16:18;;;;;;;9.98;3.00;;;6.40;99.90;;;;;;5019119;28;25119;-73
2023/03/17 07:18:46;;;;;;;3.65;1.65;;;6.40;99.90;;;;;;5036645;28;25135;-72
2023/03/17 07:21:14;;;;;;;6.38;2.75;;;6.50;99.90;;;;;;5036630;28;25126;-72
2023/03/17 07:23:42;;;;;;;5.55;2.58;;;6.60;99.90;;;;;;5019480;28;25070;-72
2023/03/17 07:26:09;;;;;;;5.18;2.45;;;6.60;99.90;;;;;;5036566;28;25064;-72
2023/03/17 07:28:38;;;;;;;5.10;2.47;;;6.60;99.90;;;;;;5036574;28;25088;-71
2023/03/17 07:31:12;;;;;;;6.00;3.25;;;6.70;99.90;;;;;;5019739;28;25082;-71
2023/03/17 07:33:41;;;;;;;5.80;2.63;;;6.80;99.90;;;;;;5020098;28;25064;-71
2023/03/17 07:36:09;;;;;;;5.68;2.53;;;6.90;99.90;;;;;;5036386;28;25105;-71
2023/03/17 07:38:47;;;;;;;6.20;2.33;;;6.90;99.90;;;;;;5036270;28;25079;-72
2023/03/17 07:41:15;;;;;;;6.15;3.03;;;7.00;99.90;;;;;;5018894;28;25078;-73
2023/03/17 07:43:42;;;;;;;5.07;2.45;;;7.10;99.80;;;;;;5036451;28;25125;-74
2023/03/17 07:46:10;;;;;;;6.15;2.60;;;7.20;99.90;;;;;;5036261;28;25113;-74
2023/03/17 07:48:40;;;;;;;5.90;2.40;;;7.20;99.70;;;;;;5036237;28;25074;-73
2023/03/17 07:51:24;;;;;;;8.48;3.30;;;7.20;99.50;;;;;;5036117;28;25120;-73
2023/03/17 07:53:51;;;;;;;6.13;3.05;;;7.30;99.50;;;;;;5036213;28;25050;-74
2023/03/17 07:56:19;;;;;;;6.30;2.95;;;7.30;99.60;;;;;;5036169;28;25055;-74
2023/03/17 07:58:46;;;;;;;4.78;2.47;;;7.40;99.10;;;;;;5018650;28;25102;-73
2023/03/17 08:01:14;;;;;;;5.93;2.60;;;7.60;98.90;;;;;;5036331;28;25093;-74
2023/03/17 08:03:42;;;;;;;5.97;2.60;;;7.60;98.90;;;;;;5036596;28;25104;-74
2023/03/17 08:06:10;;;;;;;5.13;2.75;;;7.70;98.80;;;;;;5036080;28;25067;-74
2023/03/17 08:08:37;;;;;;;6.20;2.40;;;7.70;98.70;;;;;;5018643;28;25073;-74
2023/03/17 08:11:05;;;;;;;6.93;2.65;;;7.70;98.50;;;;;;5018496;28;25152;-73
2023/03/17 08:13:33;;;;;;;3.78;2.10;;;7.70;98.50;;;;;;5018535;28;25105;-72
2023/03/17 08:16:01;;;;;;;3.88;2.22;;;7.80;98.50;;;;;;5035927;28;25055;-72
2023/03/17 08:18:28;;;;;;;4.80;2.65;;;7.80;98.20;;;;;;5036095;28;25067;-73
2023/03/17 08:20:56;;;;;;;3.75;2.20;;;7.90;98.30;;;;;;5035994;28;25060;-74
2023/03/17 08:23:25;;;;;;;5.85;2.70;;;8.00;98.20;;;;;;5036273;28;25135;-75
2023/03/17 08:25:57;;;;;;;5.20;2.58;;;8.10;97.80;;;;;;5035862;28;25097;-73
2023/03/17 08:28:26;;;;;;;3.97;2.05;;;8.10;97.80;;;;;;5036103;28;25068;-74
2023/03/17 08:30:54;;;;;;;4.90;2.17;;;8.20;97.60;;;;;;5035894;28;25138;-74
2023/03/17 08:33:22;;;;;;;5.57;2.67;;;8.30;97.40;;;;;;5035809;28;25067;-73
2023/03/17 08:35:50;;;;;;;4.57;2.55;;;8.40;97.20;;;;;;5035964;28;25055;-74
2023/03/17 08:38:18;;;;;;;6.30;2.40;;;8.40;97.10;;;;;;5036039;28;25125;-73
2023/03/17 08:40:45;;;;;;;5.80;2.88;;;8.50;96.70;;;;;;5035810;28;25073;-74
2023/03/17 08:43:13;;;;;;;5.57;2.05;;;8.60;96.50;;;;;;5036820;28;25054;-73
2023/03/17 08:45:40;;;;;;;6.38;2.65;;;8.70;96.20;;;;;;5018265;28;25055;-73
2023/03/17 08:48:08;;;;;;;5.65;2.60;;;8.70;96.00;;;;;;5035890;28;25073;-74
2023/03/17 08:50:36;;;;;;;5.22;2.72;;;8.80;95.70;;;;;;5035899;28;25133;-73
2023/03/17 08:53:03;;;;;;;5.22;2.72;;;8.90;96.00;;;;;;5035650;28;25072;-73
2023/03/17 08:55:31;;;;;;;4.22;2.00;;;8.90;95.80;;;;;;5035642;28;25075;-74
2023/03/17 08:57:58;;;;;;;4.97;2.40;;;8.90;95.50;;;;;;5037600;28;25051;-74
2023/03/17 09:00:27;;;;;;;6.70;3.08;;;9.10;95.40;;;;;;5039238;28;25069;-74
2023/03/17 09:02:57;;;;;;;4.65;2.67;;;9.20;95.40;;;;;;5039519;28;25078;-74
2023/03/17 09:05:25;;;;;;;4.40;2.45;;;9.20;95.60;;;;;;5039037;28;25070;-74
2023/03/17 09:07:52;;;;;;;7.47;1.92;;;9.30;95.50;;;;;;5039287;28;25079;-74
2023/03/17 09:10:22;;;;;;;7.18;2.33;;;9.40;95.50;;;;;;5021439;28;25106;-73
2023/03/17 09:12:50;;;;;;;7.70;1.85;;;9.50;95.70;;;;;;5039568;28;25069;-74
2023/03/17 09:15:18;;;;;;;6.43;2.33;;;9.60;95.30;;;;;;5037816;28;25055;-74
2023/03/17 09:17:46;;;;;;;4.97;2.42;;;9.70;95.60;;;;;;5039344;28;25064;-73
2023/03/17 09:20:13;;;;;;;5.70;2.15;;;9.80;95.60;;;;;;5038731;28;25159;-74
2023/03/17 09:22:41;;;;;;;4.63;2.45;;;9.90;94.40;;;;;;5038856;28;25066;-74
2023/03/17 09:25:09;;;;;;;5.28;2.05;;;10.20;94.30;;;;;;5021215;28;25107;-75
2023/03/17 09:27:37;;;;;;;3.78;1.90;;;10.30;94.20;;;;;;5038849;28;25076;-74
2023/03/17 09:30:06;;;;;;;5.80;2.63;;;10.50;93.90;;;;;;5039650;28;25079;-74
2023/03/17 09:32:33;;;;;;;4.75;2.10;;;10.60;93.70;;;;;;5021103;28;25082;-72
2023/03/17 09:35:00;;;;;;;4.18;1.95;;;10.70;93.20;;;;;;5038507;28;25080;-74
2023/03/17 09:37:27;;;;;;;4.80;2.90;;;10.80;93.60;;;;;;5021180;28;25062;-73
2023/03/17 09:39:56;;;;;;;3.50;1.73;;;10.80;92.60;;;;;;5038456;28;25106;-74
2023/03/17 09:42:51;;;;;;;4.68;2.10;;;10.90;92.70;;;;;;5038449;28;25080;-74
2023/03/17 09:45:31;;;;;;;9.65;2.10;;;11.00;92.10;;;;;;5033007;28;25078;-73
2023/03/17 09:48:08;;;;;;;4.47;1.90;;;11.10;92.10;;;;;;5038690;28;25064;-73
2023/03/17 09:50:52;;;;;;;4.28;2.15;;;11.20;91.80;;;;;;5038853;28;25064;-75
2023/03/17 09:53:26;;;;;;;3.95;2.22;;;11.30;91.50;;;;;;5038604;28;25082;-75
2023/03/17 09:55:58;;;;;;;3.65;2.05;;;11.30;91.40;;;;;;5038680;28;25055;-73
2023/03/17 09:58:31;;;;;;;4.18;2.35;;;11.40;91.40;;;;;;5038899;28;25063;-78
2023/03/17 10:01:02;;;;;;;3.88;2.20;;;11.50;91.50;;;;;;5038100;28;25094;-76
2023/03/17 10:03:33;;;;;;;4.78;1.92;;;11.50;91.40;;;;;;5038076;28;25438;-73
2023/03/17 10:06:35;;;;;;;3.45;1.88;;;11.60;91.10;;;;;;5037986;28;25057;-73
2023/03/17 10:09:18;;;;;;;4.50;2.10;;;11.70;91.10;;;;;;5036674;28;25094;-74
2023/03/17 10:11:58;;;;;;;5.35;1.90;;;11.70;91.10;;;;;;5038171;28;25060;-73
2023/03/17 10:14:46;;;;;;;2.80;1.73;;;11.80;90.70;;;;;;5037851;28;25095;-76
2023/03/17 10:17:41;;;;;;;5.28;2.40;;;11.90;90.50;;;;;;5020318;28;25074;-81
2023/03/17 10:20:18;;;;;;;4.13;2.33;;;12.00;90.30;;;;;;5037744;28;25074;-75
2023/03/17 10:22:57;;;;;;;5.65;2.33;;;12.00;90.30;;;;;;5037901;28;25067;-74
2023/03/17 10:25:33;;;;;;;6.18;2.45;;;12.10;90.30;;;;;;5037875;28;25129;-74
2023/03/17 10:28:25;;;;;;;6.85;2.50;;;12.10;90.20;;;;;;5038186;28;25100;-74
2023/03/17 10:30:53;;;;;;;4.95;1.75;;;12.20;90.30;;;;;;5037480;28;25121;-73
2023/03/17 10:33:21;;;;;;;4.60;1.85;;;12.40;89.70;;;;;;5037964;28;25144;-74
2023/03/17 10:35:49;;;;;;;5.65;2.00;;;12.50;90.40;;;;;;5037668;28;25168;-74
2023/03/17 10:38:23;;;;;;;3.75;1.80;;;12.60;90.70;;;;;;5037977;28;25061;-75
2023/03/17 10:40:58;;;;;;;7.65;2.22;;;12.70;89.90;;;;;;5037371;28;25070;-74
2023/03/17 10:43:36;;;;;;;4.30;1.97;;;12.80;89.60;;;;;;5037482;28;25045;-74
2023/03/17 10:46:06;;;;;;;7.75;2.83;;;12.80;90.10;;;;;;5037514;28;25103;-75
2023/03/17 10:48:38;;;;;;;5.45;2.58;;;12.90;89.90;;;;;;5037048;28;25083;-73
2023/03/17 10:51:20;;;;;;;4.78;1.95;;;12.90;90.40;;;;;;5037185;28;25102;-73
2023/03/17 10:53:53;;;;;;;5.95;2.03;;;13.00;90.10;;;;;;5037134;28;25067;-73
2023/03/17 10:56:29;;;;;;;5.05;2.40;;;13.00;90.00;;;;;;5037338;28;25063;-74
2023/03/17 10:59:05;;;;;;;3.40;1.70;;;13.10;90.00;;;;;;5037042;28;25095;-74
2023/03/17 11:01:44;;;;;;;4.72;2.08;;;13.20;89.30;;;;;;5037151;28;25090;-74
2023/03/17 11:04:30;;;;;;;3.67;2.00;;;13.30;87.60;;;;;;5035830;28;25068;-75
2023/03/17 11:07:00;;;;;;;7.80;2.28;;;13.50;88.40;;;;;;5037224;28;25131;-74
2023/03/17 11:09:34;;;;;;;4.90;2.33;;;13.60;88.40;;;;;;5036812;28;25135;-81
2023/03/17 11:12:07;;;;;;;6.40;2.30;;;13.60;87.90;;;;;;5037190;28;25078;-74
2023/03/17 11:14:36;;;;;;;5.07;2.10;;;13.70;88.00;;;;;;5036953;28;25059;-75
2023/03/17 11:17:32;;;;;;;4.07;1.83;;;13.80;86.50;;;;;;5019159;28;25071;-74
2023/03/17 11:20:26;;;;;;;5.65;2.10;;;13.90;86.00;;;;;;5036118;28;25401;-74
2023/03/17 11:23:07;;;;;;;4.68;1.80;;;14.00;85.20;;;;;;5036878;28;25067;-74
2023/03/17 11:25:41;;;;;;;3.25;1.85;;;14.10;85.20;;;;;;5037286;28;25087;-76
2023/03/17 11:28:20;;;;;;;6.80;2.22;;;14.20;85.50;;;;;;5037255;28;25072;-77
2023/03/17 11:30:59;;;;;;;4.40;2.05;;;14.40;84.50;;;;;;5037054;28;25074;-75
2023/03/17 11:33:42;;;;;;;4.53;2.50;;;14.50;85.50;;;;;;5036532;28;25085;-74
2023/03/17 11:36:37;;;;;;;4.82;1.73;;;14.70;83.60;;;;;;5036377;28;25051;-74
2023/03/17 11:39:14;;;;;;;4.13;1.90;;;14.80;83.00;;;;;;5036706;28;25064;-74
2023/03/17 11:42:12;;;;;;;4.95;1.75;;;14.90;83.00;;;;;;5036968;28;25060;-74
2023/03/17 11:44:39;;;;;;;4.60;1.98;;;15.00;84.10;;;;;;5037315;28;25082;-74
2023/03/17 11:47:38;;;;;;;3.92;1.73;;;15.20;81.70;;;;;;5036778;28;25081;-74
2023/03/17 11:50:50;;;;;;;5.30;2.10;;;15.40;81.20;;;;;;5056254;28;25061;-74
2023/03/17 11:53:24;;;;;;;7.38;1.90;;;15.70;81.20;;;;;;5056529;28;25078;-76
2023/03/17 11:56:05;;;;;;;4.72;1.70;;;15.90;80.90;;;;;;5056382;28;25129;-74
2023/03/17 11:58:40;;;;;;;5.25;1.98;;;16.00;81.00;;;;;;5056315;28;25108;-74
2023/03/17 12:01:26;;;;;;;4.82;2.35;;;16.30;79.70;;;;;;5056072;28;25048;-74
2023/03/17 12:04:15;;;;;;;5.32;2.35;;;16.50;79.50;;;;;;5056085;28;25071;-76
2023/03/17 12:06:57;;;;;;;6.22;1.60;;;16.50;78.90;;;;;;5056198;28;25068;-75
2023/03/17 12:09:28;;;;;;;4.80;2.00;;;16.60;78.90;;;;;;5056038;28;25064;-75
2023/03/17 12:11:57;;;;;;;5.97;2.17;;;16.80;76.40;;;;;;5056309;28;25111;-75
2023/03/17 12:14:33;;;;;;;6.18;2.30;;;16.90;75.60;;;;;;5056009;28;25065;-75
2023/03/17 12:17:20;;;;;;;3.03;1.63;;;17.00;74.60;;;;;;5056422;28;25118;-75
2023/03/17 12:20:17;;;;;;;4.97;1.50;;;17.10;73.80;;;;;;5054856;28;25077;-76
2023/03/17 12:23:01;;;;;;;3.42;1.60;;;17.10;75.10;;;;;;5056281;28;25074;-75
2023/03/17 12:25:36;;;;;;;4.70;1.50;;;17.10;75.60;;;;;;5056203;28;25055;-75
2023/03/17 12:28:23;;;;;;;3.15;1.85;;;17.20;74.00;;;;;;5056362;28;25066;-75
2023/03/17 12:31:27;;;;;;;4.30;2.17;;;17.30;73.90;;;;;;5055921;28;25083;-75
2023/03/17 12:34:19;;;;;;;6.70;1.90;;;17.40;73.80;;;;;;5060322;28;24958;-75
2023/03/17 12:36:48;;;;;;;4.07;1.60;;;17.40;72.90;;;;;;5059663;28;25057;-75
2023/03/17 12:39:32;;;;;;;3.80;1.92;;;17.40;73.50;;;;;;5059924;28;25082;-75
2023/03/17 12:42:24;;;;;;;5.13;1.92;;;17.60;72.80;;;;;;5058469;28;25088;-75
2023/03/17 12:45:03;;;;;;;4.70;1.75;;;17.70;72.30;;;;;;5059786;28;25074;-76
2023/03/17 12:47:45;;;;;;;3.83;1.70;;;17.70;70.80;;;;;;5058471;28;25064;-75
2023/03/17 12:50:53;;;;;;;4.55;1.95;;;17.80;70.40;;;;;;5059697;28;25067;-76
2023/03/17 12:53:30;;;;;;;4.07;1.35;;;17.80;70.40;;;;;;5059729;28;25059;-75
2023/03/17 12:56:20;;;;;;;4.88;1.73;;;17.70;69.80;;;;;;5059249;28;25062;-76
2023/03/17 12:59:01;;;;;;;6.00;1.50;;;17.60;70.70;;;;;;5058272;28;25132;-75
2023/03/17 13:01:36;;;;;;;7.60;1.65;;;17.60;71.40;;;;;;5059835;28;25083;-78
2023/03/17 13:04:03;;;;;;;4.72;1.83;;;17.60;71.10;;;;;;5059167;28;25129;-75
2023/03/17 13:06:34;;;;;;;3.97;1.63;;;17.60;70.10;;;;;;5059467;28;25067;-75
2023/03/17 13:09:31;;;;;;;3.30;1.60;;;17.70;70.10;;;;;;5059053;28;25090;-75
2023/03/17 13:11:58;;;;;;;;;;;17.60;70.80;;;;;;5033126;28;25128;-77
2023/03/17 13:14:46;;;;;;;6.25;1.70;;;17.70;71.10;;;;;;5059049;28;24124;-82
2023/03/17 13:17:17;;;;;;;6.35;1.67;;;17.70;71.40;;;;;;5059206;28;25131;-73